createdAt,value
2022-10-05T00:01:27.319Z,92.86
2022-10-05T00:04:00.345Z,93.22
2022-10-05T00:06:30.117Z,93.59
2022-10-05T00:08:56.931Z,93.42
2022-10-05T00:11:23.636Z,94.44
2022-10-05T00:13:50.480Z,95.28
2022-10-05T00:16:21.103Z,95.55
2022-10-05T00:18:50.614Z,94.98
2022-10-05T00:21:23.288Z,93.37
2022-10-05T00:23:50.881Z,92.87
2022-10-05T00:26:26.503Z,92.82
2022-10-05T00:28:54.572Z,93.96
2022-10-05T00:31:24.376Z,93.94
2022-10-05T00:33:51.453Z,93.92
2022-10-05T00:36:18.724Z,93.40
2022-10-05T00:38:45.610Z,92.96
2022-10-05T00:41:37.492Z,92.45
2022-10-05T00:44:33.128Z,91.78
2022-10-05T00:47:18.401Z,92.54
2022-10-05T00:50:08.550Z,92.01
2022-10-05T00:53:05.940Z,91.58
2022-10-05T00:55:58.072Z,91.58
2022-10-05T00:58:24.796Z,91.59
2022-10-05T01:01:25.672Z,92.12
2022-10-05T01:04:27.775Z,92.83
2022-10-05T01:07:25.558Z,92.53
2022-10-05T01:10:09.832Z,93.62
2022-10-05T01:13:03.067Z,94.28
2022-10-05T01:15:42.882Z,93.31
2022-10-05T01:18:25.657Z,92.97
2022-10-05T01:21:17.742Z,93.69
2022-10-05T01:24:14.054Z,94.12
2022-10-05T01:26:53.466Z,94.34
2022-10-05T01:29:45.180Z,94.39
2022-10-05T01:32:51.922Z,93.75
2022-10-05T01:35:37.674Z,93.97
2022-10-05T01:38:21.616Z,94.37
2022-10-05T01:41:22.673Z,93.46
2022-10-05T01:44:28.490Z,93.71
2022-10-05T01:47:29.057Z,92.38
2022-10-05T01:50:16.922Z,91.28
2022-10-05T01:53:00.840Z,91.29
2022-10-05T01:55:41.633Z,91.28
2022-10-05T01:58:36.954Z,91.99
2022-10-05T02:01:31.409Z,92.11
2022-10-05T02:04:42.675Z,92.18
2022-10-05T02:07:23.042Z,91.54
2022-10-05T02:10:06.022Z,92.69
2022-10-05T02:12:42.480Z,93.19
2022-10-05T02:15:15.083Z,93.71
2022-10-05T02:17:54.982Z,93.70
2022-10-05T02:20:35.422Z,93.51
2022-10-05T02:23:19.467Z,92.69
2022-10-05T02:25:56.924Z,92.77
2022-10-05T02:28:40.687Z,94.04
2022-10-05T02:31:36.324Z,93.24
2022-10-05T02:34:23.092Z,92.28
2022-10-05T02:37:14.543Z,93.07
2022-10-05T02:40:00.143Z,94.41
2022-10-05T02:43:28.791Z,94.49
2022-10-05T02:46:13.978Z,94.79
2022-10-05T02:49:05.587Z,94.33
2022-10-05T02:51:35.398Z,94.58
2022-10-05T02:54:14.312Z,93.57
2022-10-05T02:57:03.273Z,92.94
2022-10-05T02:59:43.653Z,92.74
2022-10-05T03:02:58.724Z,93.62
2022-10-05T03:05:35.458Z,93.93
2022-10-05T03:08:09.615Z,95.07
2022-10-05T03:11:05.579Z,94.59
2022-10-05T03:14:00.278Z,93.71
2022-10-05T03:16:36.584Z,94.34
2022-10-05T03:19:47.507Z,93.38
2022-10-05T03:22:45.354Z,93.30
2022-10-05T03:25:57.449Z,93.28
2022-10-05T03:28:39.875Z,92.71
2022-10-05T03:31:19.583Z,93.14
2022-10-05T03:34:09.424Z,93.40
2022-10-05T03:37:03.885Z,92.96
2022-10-05T03:39:53.918Z,93.39
2022-10-05T03:42:33.392Z,94.00
2022-10-05T03:45:18.506Z,93.75
2022-10-05T03:47:51.176Z,94.07
2022-10-05T03:50:48.432Z,94.63
2022-10-05T03:53:20.427Z,94.75
2022-10-05T03:56:05.108Z,93.58
2022-10-05T03:58:57.547Z,93.30
2022-10-05T04:01:33.543Z,92.41
2022-10-05T04:04:05.017Z,93.42
2022-10-05T04:06:41.124Z,93.78
2022-10-05T04:09:25.052Z,93.60
2022-10-05T04:12:04.683Z,93.69
2022-10-05T04:14:41.597Z,94.44
2022-10-05T04:17:37.671Z,95.15
2022-10-05T04:20:27.556Z,94.55
2022-10-05T04:23:04.536Z,94.41
2022-10-05T04:25:43.646Z,95.00
2022-10-05T04:28:33.720Z,96.61
2022-10-05T04:31:04.355Z,95.28
2022-10-05T04:33:33.394Z,96.03
2022-10-05T04:36:22.520Z,96.43
2022-10-05T04:38:55.547Z,96.02
2022-10-05T04:41:56.850Z,94.93
2022-10-05T04:44:44.887Z,94.27
2022-10-05T04:47:36.797Z,94.35
2022-10-05T04:50:26.836Z,94.51
2022-10-05T04:53:08.129Z,95.50
2022-10-05T04:55:46.398Z,95.81
2022-10-05T04:58:32.569Z,95.61
2022-10-05T05:01:22.366Z,95.68
2022-10-05T05:04:12.289Z,95.59
2022-10-05T05:07:12.805Z,96.71
2022-10-05T05:09:39.770Z,97.40
2022-10-05T05:12:33.981Z,98.66
2022-10-05T05:15:34.626Z,98.81
2022-10-05T05:18:21.335Z,98.15
2022-10-05T05:21:21.624Z,98.17
2022-10-05T05:23:48.410Z,96.29
2022-10-05T05:26:27.268Z,96.03
2022-10-05T05:29:42.567Z,96.60
2022-10-05T05:32:46.763Z,96.59
2022-10-05T05:35:29.071Z,95.07
2022-10-05T05:38:14.141Z,95.60
2022-10-05T05:40:59.267Z,95.87
2022-10-05T05:43:56.097Z,96.03
2022-10-05T05:46:51.135Z,95.43
2022-10-05T05:49:22.368Z,96.16
2022-10-05T05:52:09.829Z,96.13
2022-10-05T05:54:44.628Z,95.65
2022-10-05T05:57:30.673Z,96.03
2022-10-05T06:00:03.775Z,96.45
2022-10-05T06:02:58.741Z,96.63
2022-10-05T06:05:40.712Z,95.89
2022-10-05T06:08:33.476Z,95.98
2022-10-05T06:11:16.801Z,95.37
2022-10-05T06:13:44.269Z,95.94
2022-10-05T06:16:19.423Z,96.80
2022-10-05T06:18:55.488Z,96.88
2022-10-05T06:21:30.378Z,96.91
2022-10-05T06:24:14.026Z,96.51
2022-10-05T06:27:18.554Z,95.86
2022-10-05T06:29:57.377Z,95.63
2022-10-05T06:32:33.527Z,95.72
2022-10-05T06:35:15.328Z,94.32
2022-10-05T06:38:00.618Z,92.48
2022-10-05T06:40:30.763Z,92.57
2022-10-05T06:43:05.765Z,91.67
2022-10-05T06:45:53.211Z,90.54
2022-10-05T06:48:40.787Z,90.35
2022-10-05T06:51:55.110Z,90.65
2022-10-05T06:54:53.855Z,90.54
2022-10-05T06:57:27.203Z,90.70
2022-10-05T07:00:04.887Z,91.58
2022-10-05T07:02:40.751Z,91.53
2022-10-05T07:05:33.437Z,90.99
2022-10-05T07:08:09.910Z,89.87
2022-10-05T07:10:57.916Z,89.34
2022-10-05T07:13:40.270Z,89.85
2022-10-05T07:16:22.938Z,89.56
2022-10-05T07:19:05.212Z,88.66
2022-10-05T07:21:39.611Z,88.10
2022-10-05T07:24:29.183Z,87.83
2022-10-05T07:27:02.311Z,87.63
2022-10-05T07:30:05.915Z,87.28
2022-10-05T07:32:55.620Z,87.42
2022-10-05T07:36:01.254Z,87.49
2022-10-05T07:38:52.966Z,87.67
2022-10-05T07:41:31.230Z,88.11
2022-10-05T07:44:19.086Z,86.89
2022-10-05T07:47:00.815Z,86.91
2022-10-05T07:49:47.928Z,86.54
2022-10-05T07:52:22.027Z,86.39
2022-10-05T07:55:26.088Z,85.40
2022-10-05T07:58:06.168Z,85.58
2022-10-05T08:00:55.748Z,85.33
2022-10-05T08:03:38.323Z,85.67
2022-10-05T08:06:10.199Z,85.83
2022-10-05T08:08:48.095Z,85.58
2022-10-05T08:11:19.195Z,85.70
2022-10-05T08:14:03.827Z,85.28
2022-10-05T08:16:36.385Z,84.78
2022-10-05T08:19:15.282Z,84.40
2022-10-05T08:21:49.262Z,84.50
2022-10-05T08:24:44.323Z,84.97
2022-10-05T08:27:50.128Z,84.48
2022-10-05T08:30:17.327Z,85.37
2022-10-05T08:32:43.869Z,84.31
2022-10-05T08:35:22.648Z,83.72
2022-10-05T08:37:51.014Z,83.06
2022-10-05T08:40:58.511Z,82.36
2022-10-05T08:43:49.484Z,83.09
2022-10-05T08:46:54.062Z,83.25
2022-10-05T08:49:57.893Z,83.16
2022-10-05T08:52:46.998Z,84.14
2022-10-05T08:55:34.083Z,84.50
2022-10-05T08:58:30.481Z,83.86
2022-10-05T09:01:18.458Z,83.30
2022-10-05T09:04:01.392Z,82.35
2022-10-05T09:06:53.797Z,83.55
2022-10-05T09:09:26.490Z,82.83
2022-10-05T09:12:11.171Z,82.66
2022-10-05T09:15:31.815Z,82.85
2022-10-05T09:18:07.783Z,82.08
2022-10-05T09:20:54.181Z,82.05
2022-10-05T09:23:49.084Z,81.99
2022-10-05T09:26:40.931Z,81.42
2022-10-05T09:29:49.487Z,81.49
2022-10-05T09:32:54.019Z,67.53
2022-10-05T09:35:45.369Z,64.42
2022-10-05T09:38:53.597Z,64.52
2022-10-05T09:41:23.297Z,62.61
2022-10-05T09:44:01.887Z,60.11
2022-10-05T09:46:41.164Z,59.24
2022-10-05T09:49:35.323Z,61.39
2022-10-05T09:52:35.166Z,60.54
2022-10-05T09:55:06.641Z,59.30
2022-10-05T09:57:50.850Z,58.82
2022-10-05T10:00:28.355Z,58.21
2022-10-05T10:03:10.026Z,59.17
2022-10-05T10:05:57.931Z,57.27
2022-10-05T10:09:02.107Z,57.52
2022-10-05T10:11:50.489Z,56.19
2022-10-05T10:15:11.360Z,57.02
2022-10-05T10:17:59.603Z,56.47
2022-10-05T10:20:56.959Z,55.91
2022-10-05T10:24:00.407Z,56.22
2022-10-05T10:26:51.675Z,56.98
2022-10-05T10:29:53.554Z,56.32
2022-10-05T10:32:33.875Z,56.37
2022-10-05T10:35:21.862Z,55.14
2022-10-05T10:38:23.715Z,56.13
2022-10-05T10:41:27.722Z,53.74
2022-10-05T10:44:12.941Z,54.18
2022-10-05T10:47:41.560Z,52.95
2022-10-05T10:50:36.061Z,52.08
2022-10-05T10:53:36.173Z,51.31
2022-10-05T10:56:21.296Z,51.48
2022-10-05T10:59:17.401Z,51.27
2022-10-05T11:01:53.412Z,50.14
2022-10-05T11:04:57.267Z,50.43
2022-10-05T11:07:58.291Z,49.67
2022-10-05T11:10:27.935Z,50.27
2022-10-05T11:13:00.833Z,50.97
2022-10-05T11:15:42.804Z,51.97
2022-10-05T11:18:24.268Z,49.88
2022-10-05T11:21:41.460Z,51.26
2022-10-05T11:24:38.787Z,51.48
2022-10-05T11:27:37.758Z,50.48
2022-10-05T11:30:25.882Z,50.62
2022-10-05T11:33:25.110Z,51.80
2022-10-05T11:36:38.187Z,52.32
2022-10-05T11:39:20.723Z,51.99
2022-10-05T11:42:19.163Z,51.57
2022-10-05T11:45:36.319Z,52.77
2022-10-05T11:48:33.761Z,51.17
2022-10-05T11:51:37.317Z,50.10
2022-10-05T11:54:18.399Z,50.78
2022-10-05T11:56:54.682Z,51.22
2022-10-05T11:59:30.475Z,52.38
2022-10-05T12:02:19.079Z,51.91
2022-10-05T12:05:10.815Z,50.67
2022-10-05T12:07:37.569Z,51.39
2022-10-05T12:10:23.414Z,51.03
2022-10-05T12:13:02.718Z,50.29
2022-10-05T12:15:56.921Z,50.89
2022-10-05T12:18:34.030Z,51.72
2022-10-05T12:21:09.373Z,51.99
2022-10-05T12:23:50.948Z,52.68
2022-10-05T12:26:29.755Z,53.29
2022-10-05T12:29:13.924Z,53.78
2022-10-05T12:32:03.029Z,54.22
2022-10-05T12:34:41.897Z,53.78
2022-10-05T12:37:47.801Z,54.08
2022-10-05T12:40:22.733Z,54.92
2022-10-05T12:43:01.345Z,54.90
2022-10-05T12:45:43.531Z,54.55
2022-10-05T12:48:44.013Z,55.04
2022-10-05T12:51:41.953Z,54.98
2022-10-05T12:54:29.924Z,55.34
2022-10-05T12:57:05.959Z,54.09
2022-10-05T12:59:41.704Z,54.62
2022-10-05T13:02:33.313Z,54.77
2022-10-05T13:05:11.729Z,54.72
2022-10-05T13:07:47.387Z,53.30
2022-10-05T13:10:28.012Z,53.17
2022-10-05T13:13:16.435Z,54.10
2022-10-05T13:16:01.721Z,53.74
2022-10-05T13:18:51.050Z,53.34
2022-10-05T13:21:33.053Z,54.03
2022-10-05T13:24:18.501Z,55.14
2022-10-05T13:26:52.009Z,54.50
2022-10-05T13:29:31.086Z,54.42
2022-10-05T13:32:03.785Z,55.76
2022-10-05T13:34:33.300Z,53.48
2022-10-05T13:37:09.063Z,54.01
2022-10-05T13:39:49.704Z,54.39
2022-10-05T13:42:49.174Z,55.03
2022-10-05T13:45:24.668Z,55.25
2022-10-05T13:48:03.673Z,53.95
2022-10-05T13:50:34.610Z,54.53
2022-10-05T13:53:31.190Z,55.58
2022-10-05T13:56:14.862Z,54.80
2022-10-05T13:58:48.141Z,55.16
2022-10-05T14:01:22.715Z,55.67
2022-10-05T14:04:16.951Z,56.16
2022-10-05T14:06:45.086Z,57.46
2022-10-05T14:09:22.065Z,56.60
2022-10-05T14:11:51.176Z,56.43
2022-10-05T14:14:28.269Z,56.98
2022-10-05T14:17:00.770Z,57.51
2022-10-05T14:19:32.409Z,56.68
2022-10-05T14:22:02.157Z,57.40
2022-10-05T14:24:46.139Z,57.47
2022-10-05T14:27:21.467Z,57.85
2022-10-05T14:30:00.502Z,57.21
2022-10-05T14:32:31.982Z,57.34
2022-10-05T14:35:28.151Z,57.76
2022-10-05T14:38:01.250Z,58.56
2022-10-05T14:40:35.013Z,58.62
2022-10-05T14:43:31.071Z,59.28
2022-10-05T14:46:00.896Z,60.14
2022-10-05T14:48:37.526Z,60.56
2022-10-05T14:51:10.791Z,60.84
2022-10-05T14:53:41.519Z,61.02
2022-10-05T14:56:11.255Z,60.94
2022-10-05T14:58:45.664Z,60.42
2022-10-05T15:01:24.092Z,61.42
2022-10-05T15:04:16.784Z,61.79
2022-10-05T15:06:57.612Z,62.55
2022-10-05T15:09:34.962Z,63.47
2022-10-05T15:12:03.090Z,64.04
2022-10-05T15:14:32.482Z,64.88
2022-10-05T15:17:17.033Z,65.38
2022-10-05T15:20:16.203Z,66.02
2022-10-05T15:22:54.248Z,66.40
2022-10-05T15:25:37.853Z,67.04
2022-10-05T15:28:19.547Z,67.92
2022-10-05T15:31:17.592Z,67.51
2022-10-05T15:34:24.802Z,66.93
2022-10-05T15:37:12.047Z,67.69
2022-10-05T15:40:02.319Z,68.64
2022-10-05T15:42:38.283Z,67.91
2022-10-05T15:45:06.555Z,68.13
2022-10-05T15:47:56.236Z,68.53
2022-10-05T15:50:27.950Z,69.96
2022-10-05T15:53:45.773Z,69.78
2022-10-05T15:56:21.488Z,69.80
2022-10-05T15:58:55.746Z,70.65
2022-10-05T16:01:44.402Z,71.18
2022-10-05T16:04:17.027Z,71.44
2022-10-05T16:07:20.120Z,71.95
2022-10-05T16:10:16.956Z,72.77
2022-10-05T16:13:05.369Z,73.05
2022-10-05T16:16:02.479Z,73.72
2022-10-05T16:18:47.322Z,73.80
2022-10-05T16:21:29.323Z,74.37
2022-10-05T16:24:10.633Z,74.63
2022-10-05T16:26:43.109Z,74.80
2022-10-05T16:29:28.562Z,74.91
2022-10-05T16:32:04.698Z,75.20
2022-10-05T16:34:40.349Z,75.09
2022-10-05T16:37:26.104Z,75.10
2022-10-05T16:40:00.122Z,74.93
2022-10-05T16:43:19.978Z,74.40
2022-10-05T16:46:09.824Z,74.26
2022-10-05T16:48:52.005Z,73.62
2022-10-05T16:51:31.113Z,73.10
2022-10-05T16:54:18.077Z,71.80
2022-10-05T16:56:54.161Z,71.68
2022-10-05T16:59:48.153Z,71.36
2022-10-05T17:02:31.599Z,71.11
2022-10-05T17:05:14.363Z,70.87
2022-10-05T17:08:11.977Z,71.06
2022-10-05T17:10:50.721Z,70.54
2022-10-05T17:13:40.925Z,70.55
2022-10-05T17:16:13.790Z,70.40
2022-10-05T17:19:10.782Z,69.52
2022-10-05T17:22:03.141Z,69.55
2022-10-05T17:24:46.531Z,69.39
2022-10-05T17:27:21.716Z,69.84
2022-10-05T17:30:12.655Z,68.88
2022-10-05T17:32:56.274Z,68.84
2022-10-05T17:35:49.259Z,68.82
2022-10-05T17:38:22.434Z,67.88
2022-10-05T17:41:24.408Z,67.73
2022-10-05T17:44:09.895Z,67.30
2022-10-05T17:46:39.699Z,67.34
2022-10-05T17:49:26.898Z,67.60
2022-10-05T17:52:12.429Z,67.57
2022-10-05T17:55:03.646Z,67.51
2022-10-05T17:57:31.322Z,67.49
2022-10-05T18:00:04.918Z,67.53
2022-10-05T18:02:41.041Z,67.24
2022-10-05T18:05:15.216Z,67.98
2022-10-05T18:07:48.184Z,68.42
2022-10-05T18:10:28.647Z,68.74
2022-10-05T18:13:01.535Z,69.49
2022-10-05T18:15:28.192Z,69.77
2022-10-05T18:18:00.930Z,70.03
2022-10-05T18:20:31.927Z,69.83
2022-10-05T18:23:07.804Z,69.77
2022-10-05T18:25:43.342Z,71.03
2022-10-05T18:28:50.995Z,71.44
2022-10-05T18:31:43.815Z,71.74
2022-10-05T18:34:36.023Z,71.34
2022-10-05T18:37:25.750Z,71.14
2022-10-05T18:40:05.709Z,71.16
2022-10-05T18:42:48.636Z,71.79
2022-10-05T18:45:36.513Z,72.32
2022-10-05T18:48:29.754Z,72.17
2022-10-05T18:51:26.117Z,71.87
2022-10-05T18:54:06.196Z,72.26
2022-10-05T18:56:42.820Z,72.32
2022-10-05T18:59:24.546Z,73.41
2022-10-05T19:02:11.298Z,73.31
2022-10-05T19:04:56.889Z,73.60
2022-10-05T19:07:40.752Z,73.46
2022-10-05T19:10:31.018Z,74.08
2022-10-05T19:13:15.873Z,74.54
2022-10-05T19:15:57.910Z,73.93
2022-10-05T19:19:04.284Z,74.04
2022-10-05T19:21:57.891Z,74.00
2022-10-05T19:24:33.791Z,73.55
2022-10-05T19:27:38.818Z,73.69
2022-10-05T19:30:22.994Z,72.98
2022-10-05T19:33:13.671Z,73.83
2022-10-05T19:35:47.426Z,74.24
2022-10-05T19:38:23.520Z,74.49
2022-10-05T19:41:11.361Z,74.10
2022-10-05T19:44:13.371Z,74.20
2022-10-05T19:46:59.902Z,74.69
2022-10-05T19:49:56.551Z,74.37
2022-10-05T19:52:40.773Z,74.36
2022-10-05T19:55:26.418Z,73.78
2022-10-05T19:57:57.750Z,73.14
2022-10-05T20:00:25.862Z,73.12
2022-10-05T20:03:12.152Z,73.21
2022-10-05T20:05:40.136Z,73.74
2022-10-05T20:08:08.132Z,73.70
2022-10-05T20:10:34.949Z,72.27
2022-10-05T20:13:03.726Z,72.67
2022-10-05T20:15:53.969Z,72.12
2022-10-05T20:18:57.741Z,72.88
2022-10-05T20:21:50.878Z,73.23
2022-10-05T20:24:28.751Z,73.61
2022-10-05T20:27:06.396Z,74.08
2022-10-05T20:29:38.634Z,74.73
2022-10-05T20:32:18.100Z,75.17
2022-10-05T20:34:48.469Z,75.26
2022-10-05T20:37:17.572Z,75.94
2022-10-05T20:39:44.989Z,76.47
2022-10-05T20:42:11.735Z,75.83
2022-10-05T20:44:38.573Z,76.11
2022-10-05T20:47:09.523Z,75.74
2022-10-05T20:49:37.935Z,75.48
2022-10-05T20:52:05.989Z,74.85
2022-10-05T20:54:32.740Z,76.09
2022-10-05T20:56:59.425Z,76.65
2022-10-05T20:59:26.284Z,77.66
2022-10-05T21:01:52.964Z,77.82
2022-10-05T21:04:22.668Z,78.21
2022-10-05T21:06:50.065Z,78.08
2022-10-05T21:09:19.522Z,78.33
2022-10-05T21:11:50.242Z,78.41
2022-10-05T21:14:17.200Z,78.96
2022-10-05T21:16:45.855Z,78.88
2022-10-05T21:19:14.527Z,78.87
2022-10-05T21:21:43.226Z,78.94
2022-10-05T21:24:13.712Z,79.53
2022-10-05T21:26:41.828Z,79.80
2022-10-05T21:29:12.579Z,79.78
2022-10-05T21:31:39.968Z,79.86
2022-10-05T21:34:06.983Z,79.67
2022-10-05T21:36:33.675Z,79.67
2022-10-05T21:39:00.524Z,80.12
2022-10-05T21:41:27.511Z,80.72
2022-10-05T21:43:54.271Z,80.85
2022-10-05T21:46:25.497Z,81.39
2022-10-05T21:48:53.905Z,81.35
2022-10-05T21:51:24.097Z,81.01
2022-10-05T21:53:55.277Z,81.13
2022-10-05T21:56:25.815Z,80.68
2022-10-05T21:58:52.858Z,81.27
2022-10-05T22:01:22.668Z,81.87
2022-10-05T22:03:49.872Z,81.77
2022-10-05T22:06:16.646Z,81.33
2022-10-05T22:08:43.524Z,81.54
2022-10-05T22:11:13.646Z,81.78
2022-10-05T22:13:46.017Z,82.26
2022-10-05T22:16:13.664Z,82.28
2022-10-05T22:18:41.061Z,82.25
2022-10-05T22:22:07.578Z,82.77
2022-10-05T22:25:15.983Z,82.95
2022-10-05T22:28:13.750Z,83.59
2022-10-05T22:30:42.813Z,83.01
2022-10-05T22:33:09.857Z,82.88
2022-10-05T22:35:36.921Z,82.63
2022-10-05T22:38:04.314Z,82.59
2022-10-05T22:40:31.509Z,82.51
2022-10-05T22:42:58.240Z,82.46
2022-10-05T22:45:30.349Z,82.31
2022-10-05T22:47:59.239Z,82.75
2022-10-05T22:50:25.973Z,83.16
2022-10-05T22:52:52.855Z,83.74
2022-10-05T22:55:19.513Z,84.69
2022-10-05T22:57:46.459Z,84.74
2022-10-05T23:00:13.466Z,84.33
2022-10-05T23:02:42.103Z,84.66
2022-10-05T23:05:10.693Z,84.70
2022-10-05T23:07:42.487Z,84.41
2022-10-05T23:10:12.176Z,84.85
2022-10-05T23:12:39.118Z,85.26
2022-10-05T23:15:06.642Z,85.18
2022-10-05T23:17:35.098Z,85.06
2022-10-05T23:20:02.297Z,85.36
2022-10-05T23:22:29.084Z,86.53
2022-10-05T23:24:55.940Z,85.97
2022-10-05T23:27:22.627Z,86.21
2022-10-05T23:29:49.381Z,86.35
2022-10-05T23:32:16.172Z,87.00
2022-10-05T23:34:42.795Z,87.18
2022-10-05T23:37:09.502Z,87.14
2022-10-05T23:39:36.197Z,86.70
2022-10-05T23:42:02.996Z,87.16
2022-10-05T23:44:29.660Z,87.40
2022-10-05T23:46:56.390Z,87.79
2022-10-05T23:49:23.142Z,87.30
2022-10-05T23:51:49.731Z,87.61
2022-10-05T23:54:16.506Z,87.52
2022-10-05T23:56:43.295Z,87.38
2022-10-05T23:59:09.990Z,87.44
